createdAt,value
2018-05-16T00:00:50.894Z,57.30
2018-05-16T00:03:18.405Z,57.70
2018-05-16T00:05:45.917Z,58.00
2018-05-16T00:08:13.402Z,58.40
2018-05-16T00:10:40.898Z,58.80
2018-05-16T00:13:09.872Z,59.20
2018-05-16T00:15:37.361Z,59.10
2018-05-16T00:18:04.885Z,59.40
2018-05-16T00:20:32.388Z,59.60
2018-05-16T00:22:59.900Z,60.00
2018-05-16T00:25:27.400Z,60.40
2018-05-16T00:27:54.896Z,61.30
2018-05-16T00:30:23.823Z,62.20
2018-05-16T00:32:52.094Z,62.90
2018-05-16T00:35:20.432Z,63.20
2018-05-16T00:37:47.976Z,63.20
2018-05-16T00:40:15.508Z,63.30
2018-05-16T00:42:43.777Z,63.90
2018-05-16T00:45:12.127Z,64.50
2018-05-16T00:47:39.631Z,64.50
2018-05-16T00:50:07.228Z,64.90
2018-05-16T00:52:34.705Z,65.90
2018-05-16T00:55:02.194Z,67.20
2018-05-16T00:57:30.445Z,68.70
2018-05-16T00:59:58.239Z,68.70
2018-05-16T01:02:26.485Z,69.60
2018-05-16T01:04:54.005Z,69.70
2018-05-16T01:07:21.490Z,69.80
2018-05-16T01:09:48.971Z,70.10
2018-05-16T01:12:18.167Z,69.90
2018-05-16T01:14:47.237Z,69.80
2018-05-16T01:17:14.730Z,69.70
2018-05-16T01:19:43.465Z,68.80
2018-05-16T01:22:11.019Z,68.80
2018-05-16T01:24:38.503Z,68.60
2018-05-16T01:27:06.001Z,68.90
2018-05-16T01:29:33.494Z,69.20
2018-05-16T01:32:01.015Z,69.20
2018-05-16T01:34:29.164Z,69.50
2018-05-16T01:36:56.646Z,70.00
2018-05-16T01:39:24.918Z,70.70
2018-05-16T01:41:53.233Z,70.80
2018-05-16T01:44:20.711Z,70.60
2018-05-16T01:46:48.993Z,71.10
2018-05-16T01:49:20.408Z,71.10
2018-05-16T01:51:47.858Z,71.80
2018-05-16T01:54:16.100Z,72.40
2018-05-16T01:56:44.910Z,73.30
2018-05-16T01:59:13.924Z,73.20
2018-05-16T02:01:41.486Z,73.40
2018-05-16T02:04:08.974Z,74.00
2018-05-16T02:06:36.507Z,74.30
2018-05-16T02:09:04.132Z,74.60
2018-05-16T02:11:33.009Z,75.90
2018-05-16T02:14:01.265Z,76.20
2018-05-16T02:16:29.619Z,76.10
2018-05-16T02:18:57.124Z,76.50
2018-05-16T02:21:25.374Z,78.00
2018-05-16T02:23:52.873Z,77.30
2018-05-16T02:26:20.362Z,78.20
2018-05-16T02:28:47.834Z,79.10
2018-05-16T02:31:15.796Z,79.70
2018-05-16T02:33:43.272Z,80.00
2018-05-16T02:36:10.766Z,80.30
2018-05-16T02:38:38.251Z,81.10
2018-05-16T02:41:05.771Z,82.00
2018-05-16T02:43:34.090Z,82.20
2018-05-16T02:46:01.556Z,82.20
2018-05-16T02:48:29.166Z,82.20
2018-05-16T02:50:57.427Z,82.70
2018-05-16T02:53:25.620Z,82.60
2018-05-16T02:55:54.489Z,83.80
2018-05-16T02:58:22.803Z,83.70
2018-05-16T03:00:50.298Z,84.20
2018-05-16T03:03:17.800Z,84.10
2018-05-16T03:05:45.304Z,84.20
2018-05-16T03:08:12.781Z,85.00
2018-05-16T03:10:40.257Z,85.40
2018-05-16T03:13:08.581Z,86.10
2018-05-16T03:15:36.121Z,85.70
2018-05-16T03:18:04.432Z,85.40
2018-05-16T03:20:31.907Z,85.30
2018-05-16T03:22:59.399Z,85.50
2018-05-16T03:25:27.703Z,86.00
2018-05-16T03:27:56.060Z,86.00
2018-05-16T03:30:24.369Z,86.70
2018-05-16T03:32:51.892Z,86.70
2018-05-16T03:35:20.150Z,87.20
2018-05-16T03:37:47.644Z,87.20
2018-05-16T03:40:15.152Z,87.70
2018-05-16T03:42:42.654Z,87.60
2018-05-16T03:45:11.113Z,87.40
2018-05-16T03:47:39.367Z,87.90
2018-05-16T03:50:06.859Z,87.80
2018-05-16T03:52:35.105Z,87.50
2018-05-16T03:55:02.584Z,87.60
2018-05-16T03:57:42.880Z,87.60
2018-05-16T04:00:22.343Z,87.60
2018-05-16T04:03:01.771Z,87.60
2018-05-16T04:05:29.276Z,87.60
2018-05-16T04:07:57.512Z,87.80
2018-05-16T04:10:25.104Z,87.80
2018-05-16T04:12:52.526Z,87.50
2018-05-16T04:15:20.720Z,86.90
2018-05-16T04:17:49.222Z,86.20
2018-05-16T04:20:17.462Z,84.10
2018-05-16T04:22:44.978Z,84.00
2018-05-16T04:25:12.452Z,83.10
2018-05-16T04:27:40.406Z,81.60
2018-05-16T04:30:07.960Z,80.50
2018-05-16T04:32:35.570Z,79.60
2018-05-16T04:35:03.123Z,78.90
2018-05-16T04:37:31.528Z,78.40
2018-05-16T04:39:59.152Z,77.80
2018-05-16T04:42:26.788Z,77.20
2018-05-16T04:44:55.041Z,75.50
2018-05-16T04:47:23.319Z,75.00
2018-05-16T04:49:50.817Z,74.90
2018-05-16T04:52:18.300Z,74.60
2018-05-16T04:54:45.807Z,74.30
2018-05-16T04:57:13.298Z,74.50
2018-05-16T04:59:40.801Z,73.90
2018-05-16T05:02:09.071Z,73.20
2018-05-16T05:04:37.321Z,72.80
2018-05-16T05:07:04.809Z,72.70
2018-05-16T05:09:33.079Z,72.40
2018-05-16T05:12:02.020Z,72.30
2018-05-16T05:14:29.501Z,72.30
2018-05-16T05:16:57.000Z,72.60
2018-05-16T05:19:25.835Z,71.50
2018-05-16T05:21:54.028Z,71.40
2018-05-16T05:24:21.524Z,68.40
2018-05-16T05:26:49.815Z,67.90
2018-05-16T05:29:17.349Z,67.90
2018-05-16T05:31:46.088Z,67.30
2018-05-16T05:34:14.162Z,67.30
2018-05-16T05:36:41.649Z,67.10
2018-05-16T05:39:09.140Z,65.60
2018-05-16T05:41:36.635Z,66.00
2018-05-16T05:44:04.855Z,67.10
2018-05-16T05:46:33.762Z,66.90
2018-05-16T05:49:01.252Z,66.90
2018-05-16T05:51:28.906Z,66.60
2018-05-16T05:53:56.457Z,65.80
2018-05-16T05:56:24.081Z,63.50
2018-05-16T05:58:52.341Z,63.10
2018-05-16T06:01:19.942Z,63.20
2018-05-16T06:03:47.538Z,63.70
2018-05-16T06:06:15.103Z,64.50
2018-05-16T06:08:42.603Z,63.00
2018-05-16T06:11:11.740Z,63.00
2018-05-16T06:13:39.825Z,63.00
2018-05-16T06:16:07.503Z,63.90
2018-05-16T06:18:35.087Z,64.00
2018-05-16T06:21:03.337Z,63.50
2018-05-16T06:23:30.864Z,64.30
2018-05-16T06:25:58.350Z,63.80
2018-05-16T06:28:25.854Z,63.10
2018-05-16T06:30:53.948Z,64.50
2018-05-16T06:33:21.508Z,65.80
2018-05-16T06:35:49.011Z,67.00
2018-05-16T06:38:16.480Z,66.50
2018-05-16T06:40:44.749Z,66.60
2018-05-16T06:43:13.039Z,67.30
2018-05-16T06:45:41.319Z,67.20
2018-05-16T06:48:09.557Z,67.20
2018-05-16T06:50:37.121Z,67.20
2018-05-16T06:53:04.565Z,66.70
2018-05-16T06:55:32.060Z,66.50
2018-05-16T06:58:00.311Z,67.10
2018-05-16T07:00:28.626Z,68.00
2018-05-16T07:02:56.145Z,67.20
2018-05-16T07:05:23.674Z,67.70
2018-05-16T07:07:51.309Z,66.60
2018-05-16T07:10:19.073Z,65.60
2018-05-16T07:12:46.661Z,66.00
2018-05-16T07:15:14.718Z,68.30
2018-05-16T07:17:42.214Z,70.70
2018-05-16T07:20:10.429Z,70.80
2018-05-16T07:22:38.748Z,71.70
2018-05-16T07:25:06.311Z,71.60
2018-05-16T07:27:33.790Z,71.10
2018-05-16T07:30:01.296Z,71.30
2018-05-16T07:32:29.523Z,71.60
2018-05-16T07:34:57.005Z,71.40
2018-05-16T07:37:25.274Z,69.80
2018-05-16T07:39:53.646Z,70.10
2018-05-16T07:42:21.132Z,70.10
2018-05-16T07:44:48.668Z,69.50
2018-05-16T07:47:16.973Z,68.90
2018-05-16T07:49:44.465Z,68.80
2018-05-16T07:52:12.025Z,68.20
2018-05-16T07:54:39.552Z,68.00
2018-05-16T07:57:07.038Z,66.90
2018-05-16T07:59:34.537Z,67.50
2018-05-16T08:02:02.904Z,67.70
2018-05-16T08:04:31.177Z,67.60
2018-05-16T08:06:59.305Z,66.30
2018-05-16T08:09:26.817Z,65.00
2018-05-16T08:11:55.156Z,64.80
2018-05-16T08:14:22.804Z,64.80
2018-05-16T08:16:50.307Z,64.60
2018-05-16T08:19:17.833Z,64.50
2018-05-16T08:21:45.441Z,62.70
2018-05-16T08:24:14.444Z,61.00
2018-05-16T08:26:41.955Z,61.00
2018-05-16T08:29:09.465Z,59.70
2018-05-16T08:31:37.001Z,59.40
2018-05-16T08:34:06.006Z,57.70
2018-05-16T08:36:34.278Z,57.80
2018-05-16T08:39:02.544Z,57.90
2018-05-16T08:41:30.849Z,57.50
2018-05-16T08:43:58.470Z,57.50
2018-05-16T08:46:25.976Z,56.90
2018-05-16T08:48:53.493Z,57.00
2018-05-16T08:51:21.113Z,56.60
2018-05-16T08:53:48.692Z,57.10
2018-05-16T08:56:16.246Z,56.90
2018-05-16T08:58:43.828Z,55.70
2018-05-16T09:01:12.217Z,54.90
2018-05-16T09:03:39.693Z,54.80
2018-05-16T09:06:07.777Z,54.90
2018-05-16T09:08:35.863Z,54.90
2018-05-16T09:11:03.385Z,54.70
2018-05-16T09:13:32.956Z,54.00
2018-05-16T09:16:00.454Z,54.00
2018-05-16T09:18:28.730Z,55.40
2018-05-16T09:20:56.988Z,53.70
2018-05-16T09:23:25.317Z,53.70
2018-05-16T09:25:54.464Z,53.30
2018-05-16T09:28:22.701Z,53.30
2018-05-16T09:30:50.662Z,53.90
2018-05-16T09:33:18.143Z,52.80
2018-05-16T09:35:45.642Z,52.20
2018-05-16T09:38:13.887Z,52.60
2018-05-16T09:40:41.390Z,52.60
2018-05-16T09:43:08.894Z,52.60
2018-05-16T09:45:36.412Z,52.70
2018-05-16T09:48:04.737Z,53.10
2018-05-16T09:50:35.795Z,52.70
2018-05-16T09:53:04.076Z,53.10
2018-05-16T09:55:32.331Z,53.50
2018-05-16T09:57:59.831Z,53.50
2018-05-16T10:00:32.825Z,53.50
2018-05-16T10:03:00.385Z,53.40
2018-05-16T10:05:27.890Z,52.60
2018-05-16T10:07:55.439Z,52.10
2018-05-16T10:10:22.972Z,51.90
2018-05-16T10:12:50.478Z,51.90
2018-05-16T10:15:18.733Z,50.90
2018-05-16T10:17:46.244Z,50.90
2018-05-16T10:20:13.826Z,51.30
2018-05-16T10:22:41.256Z,50.30
2018-05-16T10:25:08.777Z,50.70
2018-05-16T10:27:38.196Z,50.70
2018-05-16T10:30:05.858Z,50.70
2018-05-16T10:32:34.101Z,51.40
2018-05-16T10:35:01.769Z,51.50
2018-05-16T10:37:29.266Z,51.80
2018-05-16T10:39:57.544Z,50.10
2018-05-16T10:42:26.070Z,49.30
2018-05-16T10:44:54.065Z,49.30
2018-05-16T10:47:21.623Z,49.30
2018-05-16T10:49:49.102Z,49.20
2018-05-16T10:52:17.476Z,47.20
2018-05-16T10:54:44.880Z,47.20
2018-05-16T10:57:13.092Z,47.40
2018-05-16T10:59:40.597Z,47.80
2018-05-16T11:02:08.191Z,47.30
2018-05-16T11:04:35.836Z,46.40
2018-05-16T11:07:03.435Z,47.40
2018-05-16T11:09:31.086Z,48.10
2018-05-16T11:11:58.625Z,47.40
2018-05-16T11:14:26.286Z,46.40
2018-05-16T11:16:54.655Z,47.00
2018-05-16T11:19:22.200Z,47.70
2018-05-16T11:21:49.704Z,48.30
2018-05-16T11:24:18.132Z,48.30
2018-05-16T11:26:45.699Z,49.10
2018-05-16T11:29:13.277Z,47.30
2018-05-16T11:31:41.544Z,48.20
2018-05-16T11:34:09.048Z,48.10
2018-05-16T11:36:36.638Z,46.70
2018-05-16T11:39:04.576Z,47.00
2018-05-16T11:41:32.158Z,47.60
2018-05-16T11:43:59.666Z,46.90
2018-05-16T11:46:27.166Z,47.60
2018-05-16T11:48:55.486Z,47.20
2018-05-16T11:51:22.992Z,47.10
2018-05-16T11:53:50.489Z,48.00
2018-05-16T11:56:18.015Z,47.90
2018-05-16T11:58:46.259Z,47.80
2018-05-16T12:01:13.767Z,47.80
2018-05-16T12:03:41.265Z,47.90
2018-05-16T12:06:09.247Z,48.30
2018-05-16T12:08:36.767Z,49.70
2018-05-16T12:11:04.279Z,48.90
2018-05-16T12:13:31.787Z,49.30
2018-05-16T12:15:59.269Z,49.10
2018-05-16T12:18:26.785Z,49.90
2018-05-16T12:20:54.302Z,49.10
2018-05-16T12:23:22.808Z,50.10
2018-05-16T12:25:51.069Z,49.60
2018-05-16T12:28:19.337Z,49.60
2018-05-16T12:30:46.995Z,49.80
2018-05-16T12:33:14.530Z,49.70
2018-05-16T12:35:42.148Z,49.70
2018-05-16T12:38:10.436Z,49.40
2018-05-16T12:40:37.950Z,49.50
2018-05-16T12:43:28.039Z,49.40
2018-05-16T12:45:56.144Z,49.30
2018-05-16T12:48:24.405Z,49.40
2018-05-16T12:50:53.287Z,49.30
2018-05-16T12:53:21.259Z,49.30
2018-05-16T12:55:49.607Z,50.40
2018-05-16T12:58:17.026Z,50.10
2018-05-16T13:00:45.814Z,50.90
2018-05-16T13:03:13.373Z,50.80
2018-05-16T13:05:40.866Z,51.20
2018-05-16T13:08:08.403Z,50.80
2018-05-16T13:10:35.936Z,49.80
2018-05-16T13:13:04.828Z,49.90
2018-05-16T13:15:32.296Z,49.90
2018-05-16T13:17:59.850Z,50.50
2018-05-16T13:20:27.333Z,49.60
2018-05-16T13:22:54.822Z,49.90
2018-05-16T13:25:22.347Z,49.70
2018-05-16T13:27:49.847Z,49.20
2018-05-16T13:30:17.352Z,48.70
2018-05-16T13:32:44.856Z,48.90
2018-05-16T13:35:12.414Z,49.50
2018-05-16T13:37:39.917Z,49.60
2018-05-16T13:40:08.302Z,49.40
2018-05-16T13:42:35.977Z,48.60
2018-05-16T13:45:03.600Z,48.10
2018-05-16T13:47:31.875Z,49.20
2018-05-16T13:50:00.154Z,50.10
2018-05-16T13:52:28.413Z,50.80
2018-05-16T13:54:56.749Z,49.90
2018-05-16T13:57:24.297Z,49.80
2018-05-16T13:59:51.819Z,50.50
2018-05-16T14:02:20.108Z,52.40
2018-05-16T14:04:48.382Z,51.30
2018-05-16T14:07:17.204Z,50.90
2018-05-16T14:09:44.774Z,50.90
2018-05-16T14:12:12.275Z,50.50
2018-05-16T14:14:40.559Z,50.30
2018-05-16T14:17:09.548Z,51.20
2018-05-16T14:19:37.812Z,51.30
2018-05-16T14:22:06.943Z,51.70
2018-05-16T14:24:34.432Z,51.10
2018-05-16T14:27:01.929Z,50.50
2018-05-16T14:29:31.918Z,50.20
2018-05-16T14:32:00.307Z,50.20
2018-05-16T14:34:27.800Z,49.40
2018-05-16T14:36:55.327Z,48.50
2018-05-16T14:39:22.811Z,47.50
2018-05-16T14:41:51.078Z,48.10
2018-05-16T14:44:19.353Z,47.50
2018-05-16T14:46:47.647Z,47.60
2018-05-16T14:49:15.141Z,48.30
2018-05-16T14:51:42.646Z,48.70
2018-05-16T14:54:10.897Z,49.10
2018-05-16T14:56:39.094Z,49.10
2018-05-16T14:59:07.355Z,49.40
2018-05-16T15:01:34.961Z,49.20
2018-05-16T15:04:02.442Z,49.30
2018-05-16T15:06:29.963Z,49.20
2018-05-16T15:08:57.470Z,50.20
2018-05-16T15:11:24.975Z,50.60
2018-05-16T15:13:53.245Z,51.30
2018-05-16T15:16:21.518Z,51.20
2018-05-16T15:18:49.795Z,51.20
2018-05-16T15:21:18.716Z,52.40
2018-05-16T15:23:46.869Z,52.40
2018-05-16T15:26:15.109Z,51.20
2018-05-16T15:28:43.055Z,51.30
2018-05-16T15:31:10.544Z,50.50
2018-05-16T15:33:38.075Z,50.30
2018-05-16T15:36:05.551Z,50.30
2018-05-16T15:38:33.051Z,50.60
2018-05-16T15:41:00.542Z,51.00
2018-05-16T15:43:28.027Z,51.60
2018-05-16T15:45:55.580Z,51.10
2018-05-16T15:48:23.081Z,51.40
2018-05-16T15:50:50.578Z,46.40
2018-05-16T15:53:18.128Z,45.60
2018-05-16T15:55:45.632Z,46.20
2018-05-16T15:58:13.156Z,46.90
2018-05-16T16:00:40.641Z,47.20
2018-05-16T16:03:08.128Z,48.20
2018-05-16T16:05:35.604Z,49.70
2018-05-16T16:08:03.129Z,50.50
2018-05-16T16:10:31.456Z,51.80
2018-05-16T16:12:59.078Z,51.70
2018-05-16T16:15:26.638Z,52.40
2018-05-16T16:17:54.915Z,52.50
2018-05-16T16:20:23.168Z,52.60
2018-05-16T16:22:51.431Z,53.10
2018-05-16T16:25:18.923Z,53.00
2018-05-16T16:27:46.467Z,53.00
2018-05-16T16:30:15.624Z,53.10
2018-05-16T16:32:43.197Z,53.00
2018-05-16T16:35:10.860Z,52.50
2018-05-16T16:37:38.363Z,53.20
2018-05-16T16:40:05.888Z,53.40
2018-05-16T16:42:33.421Z,54.50
2018-05-16T16:45:01.654Z,56.00
2018-05-16T16:47:29.905Z,57.00
2018-05-16T16:49:58.224Z,56.90
2018-05-16T16:52:25.709Z,56.90
2018-05-16T16:54:53.228Z,56.60
2018-05-16T16:57:20.755Z,56.50
2018-05-16T16:59:48.282Z,56.50
2018-05-16T17:02:15.775Z,56.60
2018-05-16T17:04:44.093Z,56.60
2018-05-16T17:07:12.310Z,56.80
2018-05-16T17:09:39.846Z,56.80
2018-05-16T17:12:07.831Z,57.20
2018-05-16T17:14:35.392Z,56.40
2018-05-16T17:17:02.872Z,55.60
2018-05-16T17:19:31.161Z,55.10
2018-05-16T17:21:59.455Z,55.30
2018-05-16T17:24:26.964Z,55.30
2018-05-16T17:26:54.505Z,55.80
2018-05-16T17:29:21.971Z,55.80
2018-05-16T17:31:49.487Z,55.40
2018-05-16T17:34:17.076Z,54.60
2018-05-16T17:36:44.580Z,55.30
2018-05-16T17:39:13.569Z,54.70
2018-05-16T17:41:41.826Z,53.20
2018-05-16T17:44:09.359Z,53.20
2018-05-16T17:46:36.963Z,53.20
2018-05-16T17:49:05.244Z,51.90
2018-05-16T17:51:33.515Z,52.80
2018-05-16T17:54:01.802Z,54.40
2018-05-16T17:56:30.086Z,55.90
2018-05-16T17:58:57.663Z,55.80
2018-05-16T18:01:25.208Z,56.40
2018-05-16T18:03:52.797Z,56.90
2018-05-16T18:06:20.890Z,57.60
2018-05-16T18:08:48.372Z,57.60
2018-05-16T18:11:16.647Z,58.20
2018-05-16T18:14:04.834Z,58.80
2018-05-16T18:16:44.329Z,58.70
2018-05-16T18:19:12.652Z,58.40
2018-05-16T18:21:41.039Z,58.40
2018-05-16T18:24:08.672Z,57.70
2018-05-16T18:26:36.272Z,58.50
2018-05-16T18:29:03.949Z,58.40
2018-05-16T18:31:32.015Z,58.80
2018-05-16T18:33:59.549Z,59.20
2018-05-16T18:36:27.041Z,59.80
2018-05-16T18:38:54.544Z,60.00
2018-05-16T18:41:22.073Z,60.60
2018-05-16T18:43:49.551Z,60.40
2018-05-16T18:46:17.056Z,60.40
2018-05-16T18:48:45.507Z,60.40
2018-05-16T18:51:13.081Z,60.60
2018-05-16T18:53:40.700Z,60.90
2018-05-16T18:56:08.943Z,61.90
2018-05-16T18:58:37.896Z,61.80
2018-05-16T19:01:05.971Z,62.10
2018-05-16T19:03:33.491Z,62.20
2018-05-16T19:06:01.759Z,62.30
2018-05-16T19:08:30.022Z,62.40
2018-05-16T19:10:57.571Z,62.40
2018-05-16T19:13:25.149Z,63.10
2018-05-16T19:15:53.648Z,63.40
2018-05-16T19:18:22.398Z,64.30
2018-05-16T19:20:50.820Z,64.30
2018-05-16T19:23:19.818Z,65.40
2018-05-16T19:25:48.110Z,65.20
2018-05-16T19:28:15.641Z,65.20
2018-05-16T19:30:43.956Z,65.70
2018-05-16T19:33:13.030Z,66.30
2018-05-16T19:35:40.551Z,66.30
2018-05-16T19:38:08.070Z,66.50
2018-05-16T19:40:35.614Z,66.60
2018-05-16T19:43:03.076Z,66.60
2018-05-16T19:45:30.584Z,67.00
2018-05-16T19:47:58.841Z,69.10
2018-05-16T19:50:26.439Z,70.60
2018-05-16T19:52:53.890Z,71.30
2018-05-16T19:55:22.182Z,72.90
2018-05-16T19:57:50.441Z,73.70
2018-05-16T20:00:18.558Z,73.70
2018-05-16T20:02:46.068Z,74.20
2018-05-16T20:05:13.591Z,74.70
2018-05-16T20:07:41.066Z,75.50
2018-05-16T20:10:08.586Z,75.20
2018-05-16T20:12:36.107Z,74.30
2018-05-16T20:15:04.435Z,73.10
2018-05-16T20:17:31.957Z,73.10
2018-05-16T20:20:00.251Z,71.90
2018-05-16T20:22:27.753Z,71.80
2018-05-16T20:24:55.227Z,72.20
2018-05-16T20:27:23.487Z,74.30
2018-05-16T20:29:50.989Z,76.30
2018-05-16T20:32:18.501Z,76.90
2018-05-16T20:34:46.025Z,77.20
2018-05-16T20:37:13.515Z,76.90
2018-05-16T20:39:41.013Z,77.30
2018-05-16T20:42:08.570Z,76.60
2018-05-16T20:44:36.175Z,76.90
2018-05-16T20:47:04.266Z,76.60
2018-05-16T20:49:31.755Z,76.30
2018-05-16T20:52:00.048Z,75.70
2018-05-16T20:54:27.540Z,75.70
2018-05-16T20:56:55.767Z,75.20
2018-05-16T20:59:24.488Z,75.70
2018-05-16T21:01:51.983Z,75.70
2018-05-16T21:04:19.514Z,76.20
2018-05-16T21:06:47.014Z,76.20
2018-05-16T21:09:15.288Z,75.20
2018-05-16T21:11:42.775Z,75.20
2018-05-16T21:14:10.249Z,75.70
2018-05-16T21:16:37.763Z,74.90
2018-05-16T21:19:06.742Z,75.10
2018-05-16T21:21:34.250Z,75.10
2018-05-16T21:24:01.765Z,74.90
2018-05-16T21:26:29.243Z,74.50
2018-05-16T21:28:57.504Z,74.00
2018-05-16T21:31:25.039Z,74.00
2018-05-16T21:33:52.523Z,73.50
2018-05-16T21:36:20.792Z,74.80
2018-05-16T21:38:48.300Z,74.80
2018-05-16T21:41:15.813Z,75.30
2018-05-16T21:43:44.921Z,76.60
2018-05-16T21:46:13.177Z,76.80
2018-05-16T21:48:40.667Z,76.70
2018-05-16T21:51:08.165Z,76.20
2018-05-16T21:53:35.673Z,75.60
2018-05-16T21:56:03.937Z,75.20
2018-05-16T21:58:32.215Z,75.10
2018-05-16T22:01:00.488Z,75.20
2018-05-16T22:03:29.787Z,74.60
2018-05-16T22:05:57.998Z,74.60
2018-05-16T22:08:25.484Z,74.40
2018-05-16T22:10:53.004Z,74.20
2018-05-16T22:13:20.476Z,74.20
2018-05-16T22:15:49.329Z,75.20
2018-05-16T22:18:17.603Z,75.80
2018-05-16T22:20:45.862Z,76.40
2018-05-16T22:23:13.836Z,76.30
2018-05-16T22:25:41.339Z,76.50
2018-05-16T22:28:08.822Z,76.80
2018-05-16T22:30:41.903Z,76.70
2018-05-16T22:33:15.122Z,76.40
2018-05-16T22:35:49.035Z,76.20
2018-05-16T22:38:22.141Z,75.20
2018-05-16T22:40:56.071Z,76.10
2018-05-16T22:43:23.561Z,76.10
2018-05-16T22:45:57.691Z,77.00
2018-05-16T22:48:25.184Z,76.60
2018-05-16T22:50:53.466Z,77.20
2018-05-16T22:53:22.551Z,77.50
2018-05-16T22:55:50.852Z,78.60
2018-05-16T22:58:18.336Z,77.90
2018-05-16T23:00:46.702Z,78.20
2018-05-16T23:03:14.206Z,78.00
2018-05-16T23:05:41.718Z,78.30
2018-05-16T23:08:09.190Z,78.00
2018-05-16T23:10:36.689Z,77.60
2018-05-16T23:13:05.045Z,76.80
2018-05-16T23:15:33.723Z,76.70
2018-05-16T23:18:01.203Z,76.50
2018-05-16T23:20:29.356Z,75.80
2018-05-16T23:22:56.835Z,75.80
2018-05-16T23:25:24.344Z,75.70
2018-05-16T23:27:51.845Z,74.90
2018-05-16T23:30:19.340Z,74.50
2018-05-16T23:32:46.834Z,74.50
2018-05-16T23:35:14.311Z,74.90
2018-05-16T23:37:41.827Z,75.10
2018-05-16T23:40:10.296Z,74.80
2018-05-16T23:42:37.878Z,74.90
2018-05-16T23:45:05.918Z,74.90
2018-05-16T23:47:33.424Z,75.20
2018-05-16T23:50:00.905Z,75.30
2018-05-16T23:52:28.420Z,75.60
2018-05-16T23:54:56.512Z,75.70
2018-05-16T23:57:24.684Z,76.00
2018-05-16T23:59:52.195Z,76.20
